Aviation Digital Data Service (ADDS)

Output produced by METARs form (2052 UTC 01 March 2015)
found at http://aviationweather.gov/adds/metars/
 
KLFT 011953Z 15007G17KT 10SM BKN020 OVC032 24/18 A3020 RMK AO2 SLP226 T02390183